sensor_id;sensor_type;location;lat;lon;timestamp;P1;durP1;ratioP1;P2;durP2;ratioP2
20381;SDS011;10350;51.280;12.400;2023-03-12T00:02:04;10.40;;;3.67;;
20381;SDS011;10350;51.280;12.400;2023-03-12T00:04:31;6.10;;;3.40;;
20381;SDS011;10350;51.280;12.400;2023-03-12T00:06:58;5.85;;;2.88;;
20381;SDS011;10350;51.280;12.400;2023-03-12T00:09:26;6.63;;;3.25;;
20381;SDS011;10350;51.280;12.400;2023-03-12T00:11:52;5.70;;;3.42;;
20381;SDS011;10350;51.280;12.400;2023-03-12T00:14:18;5.72;;;3.17;;
20381;SDS011;10350;51.280;12.400;2023-03-12T00:16:44;4.78;;;3.40;;
20381;SDS011;10350;51.280;12.400;2023-03-12T00:19:11;6.28;;;3.10;;
20381;SDS011;10350;51.280;12.400;2023-03-12T00:21:38;4.90;;;3.10;;
20381;SDS011;10350;51.280;12.400;2023-03-12T00:24:04;5.40;;;2.78;;
20381;SDS011;10350;51.280;12.400;2023-03-12T00:26:31;6.07;;;3.20;;
20381;SDS011;10350;51.280;12.400;2023-03-12T00:28:58;4.93;;;3.30;;
20381;SDS011;10350;51.280;12.400;2023-03-12T00:31:25;4.88;;;3.13;;
20381;SDS011;10350;51.280;12.400;2023-03-12T00:33:52;7.78;;;3.17;;
20381;SDS011;10350;51.280;12.400;2023-03-12T00:36:19;5.57;;;3.35;;
20381;SDS011;10350;51.280;12.400;2023-03-12T00:38:47;5.13;;;3.05;;
20381;SDS011;10350;51.280;12.400;2023-03-12T00:41:16;5.20;;;3.22;;
20381;SDS011;10350;51.280;12.400;2023-03-12T00:43:44;6.78;;;3.67;;
20381;SDS011;10350;51.280;12.400;2023-03-12T00:46:10;5.55;;;3.30;;
20381;SDS011;10350;51.280;12.400;2023-03-12T00:48:36;4.47;;;2.88;;
20381;SDS011;10350;51.280;12.400;2023-03-12T00:51:02;7.03;;;3.60;;
20381;SDS011;10350;51.280;12.400;2023-03-12T00:53:28;6.80;;;3.47;;
20381;SDS011;10350;51.280;12.400;2023-03-12T00:55:54;7.97;;;3.80;;
20381;SDS011;10350;51.280;12.400;2023-03-12T00:58:20;5.55;;;3.10;;
20381;SDS011;10350;51.280;12.400;2023-03-12T01:00:48;10.43;;;3.05;;
20381;SDS011;10350;51.280;12.400;2023-03-12T01:03:14;5.18;;;3.72;;
20381;SDS011;10350;51.280;12.400;2023-03-12T01:05:40;4.90;;;2.80;;
20381;SDS011;10350;51.280;12.400;2023-03-12T01:08:07;7.18;;;3.45;;
20381;SDS011;10350;51.280;12.400;2023-03-12T01:10:33;5.75;;;3.08;;
20381;SDS011;10350;51.280;12.400;2023-03-12T01:13:00;6.43;;;3.38;;
20381;SDS011;10350;51.280;12.400;2023-03-12T01:15:26;10.70;;;3.55;;
20381;SDS011;10350;51.280;12.400;2023-03-12T01:17:52;7.55;;;3.45;;
20381;SDS011;10350;51.280;12.400;2023-03-12T01:20:20;6.22;;;3.83;;
20381;SDS011;10350;51.280;12.400;2023-03-12T01:22:47;8.95;;;3.22;;
20381;SDS011;10350;51.280;12.400;2023-03-12T01:25:13;5.07;;;3.67;;
20381;SDS011;10350;51.280;12.400;2023-03-12T01:27:39;6.20;;;3.83;;
20381;SDS011;10350;51.280;12.400;2023-03-12T01:30:05;11.80;;;4.05;;
20381;SDS011;10350;51.280;12.400;2023-03-12T01:32:31;6.00;;;3.78;;
20381;SDS011;10350;51.280;12.400;2023-03-12T01:34:57;4.60;;;3.25;;
20381;SDS011;10350;51.280;12.400;2023-03-12T01:37:24;5.85;;;3.63;;
20381;SDS011;10350;51.280;12.400;2023-03-12T01:39:50;8.43;;;3.65;;
20381;SDS011;10350;51.280;12.400;2023-03-12T01:42:16;7.88;;;3.60;;
20381;SDS011;10350;51.280;12.400;2023-03-12T01:44:50;7.32;;;3.30;;
20381;SDS011;10350;51.280;12.400;2023-03-12T01:47:19;6.45;;;3.47;;
20381;SDS011;10350;51.280;12.400;2023-03-12T01:49:45;6.53;;;3.80;;
20381;SDS011;10350;51.280;12.400;2023-03-12T01:52:13;8.32;;;3.17;;
20381;SDS011;10350;51.280;12.400;2023-03-12T01:58:06;8.23;;;3.30;;
20381;SDS011;10350;51.280;12.400;2023-03-12T02:00:08;9.52;;;3.53;;
20381;SDS011;10350;51.280;12.400;2023-03-12T02:02:36;8.68;;;3.53;;
20381;SDS011;10350;51.280;12.400;2023-03-12T02:05:04;6.07;;;3.00;;
20381;SDS011;10350;51.280;12.400;2023-03-12T02:07:32;5.95;;;3.47;;
20381;SDS011;10350;51.280;12.400;2023-03-12T02:09:58;7.15;;;2.85;;
20381;SDS011;10350;51.280;12.400;2023-03-12T02:12:24;4.05;;;2.90;;
20381;SDS011;10350;51.280;12.400;2023-03-12T02:14:50;6.90;;;3.50;;
20381;SDS011;10350;51.280;12.400;2023-03-12T02:17:16;4.97;;;2.90;;
20381;SDS011;10350;51.280;12.400;2023-03-12T02:20:05;4.72;;;3.05;;
20381;SDS011;10350;51.280;12.400;2023-03-12T02:22:35;5.53;;;3.00;;
20381;SDS011;10350;51.280;12.400;2023-03-12T02:27:39;6.80;;;3.10;;
20381;SDS011;10350;51.280;12.400;2023-03-12T02:30:05;6.80;;;3.25;;
20381;SDS011;10350;51.280;12.400;2023-03-12T02:32:33;4.85;;;3.17;;
20381;SDS011;10350;51.280;12.400;2023-03-12T02:35:00;3.25;;;2.60;;
20381;SDS011;10350;51.280;12.400;2023-03-12T02:37:26;5.07;;;2.67;;
20381;SDS011;10350;51.280;12.400;2023-03-12T02:39:54;8.07;;;3.08;;
20381;SDS011;10350;51.280;12.400;2023-03-12T02:42:22;5.28;;;3.05;;
20381;SDS011;10350;51.280;12.400;2023-03-12T02:44:49;5.70;;;3.20;;
20381;SDS011;10350;51.280;12.400;2023-03-12T02:47:15;6.32;;;3.10;;
20381;SDS011;10350;51.280;12.400;2023-03-12T02:49:41;5.60;;;2.97;;
20381;SDS011;10350;51.280;12.400;2023-03-12T02:52:06;8.48;;;3.10;;
20381;SDS011;10350;51.280;12.400;2023-03-12T02:54:33;11.43;;;3.20;;
20381;SDS011;10350;51.280;12.400;2023-03-12T02:56:59;5.18;;;2.97;;
20381;SDS011;10350;51.280;12.400;2023-03-12T02:59:25;9.40;;;2.72;;
20381;SDS011;10350;51.280;12.400;2023-03-12T03:01:53;5.82;;;3.17;;
20381;SDS011;10350;51.280;12.400;2023-03-12T03:04:19;8.27;;;3.00;;
20381;SDS011;10350;51.280;12.400;2023-03-12T03:06:45;4.85;;;3.10;;
20381;SDS011;10350;51.280;12.400;2023-03-12T03:09:12;7.25;;;3.10;;
20381;SDS011;10350;51.280;12.400;2023-03-12T03:11:38;4.68;;;2.58;;
20381;SDS011;10350;51.280;12.400;2023-03-12T03:14:05;5.55;;;2.80;;
20381;SDS011;10350;51.280;12.400;2023-03-12T03:16:31;5.20;;;3.10;;
20381;SDS011;10350;51.280;12.400;2023-03-12T03:18:57;3.08;;;2.58;;
20381;SDS011;10350;51.280;12.400;2023-03-12T03:21:23;5.45;;;2.70;;
20381;SDS011;10350;51.280;12.400;2023-03-12T03:23:50;5.90;;;3.10;;
20381;SDS011;10350;51.280;12.400;2023-03-12T03:26:20;8.93;;;2.92;;
20381;SDS011;10350;51.280;12.400;2023-03-12T03:28:46;5.15;;;3.17;;
20381;SDS011;10350;51.280;12.400;2023-03-12T03:31:12;5.10;;;3.15;;
20381;SDS011;10350;51.280;12.400;2023-03-12T03:33:38;3.35;;;2.72;;
20381;SDS011;10350;51.280;12.400;2023-03-12T03:36:05;5.10;;;3.25;;
20381;SDS011;10350;51.280;12.400;2023-03-12T03:38:31;3.75;;;2.88;;
20381;SDS011;10350;51.280;12.400;2023-03-12T03:40:58;4.85;;;2.65;;
20381;SDS011;10350;51.280;12.400;2023-03-12T03:43:24;4.45;;;2.47;;
20381;SDS011;10350;51.280;12.400;2023-03-12T03:46:01;7.53;;;2.80;;
20381;SDS011;10350;51.280;12.400;2023-03-12T03:48:27;6.28;;;3.40;;
20381;SDS011;10350;51.280;12.400;2023-03-12T03:50:53;4.10;;;2.72;;
20381;SDS011;10350;51.280;12.400;2023-03-12T03:53:19;9.98;;;2.85;;
20381;SDS011;10350;51.280;12.400;2023-03-12T03:55:45;4.53;;;2.80;;
20381;SDS011;10350;51.280;12.400;2023-03-12T03:58:11;3.50;;;2.67;;
20381;SDS011;10350;51.280;12.400;2023-03-12T04:00:38;4.22;;;3.05;;
20381;SDS011;10350;51.280;12.400;2023-03-12T04:03:04;4.53;;;2.70;;
20381;SDS011;10350;51.280;12.400;2023-03-12T04:05:30;7.57;;;2.70;;
20381;SDS011;10350;51.280;12.400;2023-03-12T04:07:56;3.75;;;2.80;;
20381;SDS011;10350;51.280;12.400;2023-03-12T04:10:27;4.75;;;2.92;;
20381;SDS011;10350;51.280;12.400;2023-03-12T04:12:53;5.22;;;2.78;;
20381;SDS011;10350;51.280;12.400;2023-03-12T04:15:19;4.28;;;2.90;;
20381;SDS011;10350;51.280;12.400;2023-03-12T04:17:45;4.93;;;2.42;;
20381;SDS011;10350;51.280;12.400;2023-03-12T04:20:11;5.00;;;3.00;;
20381;SDS011;10350;51.280;12.400;2023-03-12T04:22:37;4.82;;;2.78;;
20381;SDS011;10350;51.280;12.400;2023-03-12T04:25:03;6.05;;;2.85;;
20381;SDS011;10350;51.280;12.400;2023-03-12T04:27:31;8.02;;;3.08;;
20381;SDS011;10350;51.280;12.400;2023-03-12T04:29:57;9.00;;;2.85;;
20381;SDS011;10350;51.280;12.400;2023-03-12T04:32:23;10.65;;;2.97;;
20381;SDS011;10350;51.280;12.400;2023-03-12T04:34:49;7.07;;;2.53;;
20381;SDS011;10350;51.280;12.400;2023-03-12T04:37:14;6.25;;;2.40;;
20381;SDS011;10350;51.280;12.400;2023-03-12T04:39:41;5.55;;;2.63;;
20381;SDS011;10350;51.280;12.400;2023-03-12T04:42:08;4.07;;;2.90;;
20381;SDS011;10350;51.280;12.400;2023-03-12T04:44:34;3.80;;;2.53;;
20381;SDS011;10350;51.280;12.400;2023-03-12T04:47:00;5.25;;;2.53;;
20381;SDS011;10350;51.280;12.400;2023-03-12T04:49:26;3.55;;;2.70;;
20381;SDS011;10350;51.280;12.400;2023-03-12T04:51:52;4.28;;;2.53;;
20381;SDS011;10350;51.280;12.400;2023-03-12T04:54:19;6.45;;;2.47;;
20381;SDS011;10350;51.280;12.400;2023-03-12T04:56:45;3.28;;;2.55;;
20381;SDS011;10350;51.280;12.400;2023-03-12T04:59:11;4.57;;;2.55;;
20381;SDS011;10350;51.280;12.400;2023-03-12T05:01:37;5.07;;;2.95;;
20381;SDS011;10350;51.280;12.400;2023-03-12T05:04:03;3.60;;;2.35;;
20381;SDS011;10350;51.280;12.400;2023-03-12T05:06:29;4.15;;;2.42;;
20381;SDS011;10350;51.280;12.400;2023-03-12T05:08:55;5.47;;;2.20;;
20381;SDS011;10350;51.280;12.400;2023-03-12T05:11:21;4.70;;;2.28;;
20381;SDS011;10350;51.280;12.400;2023-03-12T05:13:48;2.83;;;2.13;;
20381;SDS011;10350;51.280;12.400;2023-03-12T05:16:14;5.55;;;2.20;;
20381;SDS011;10350;51.280;12.400;2023-03-12T05:18:40;5.22;;;2.22;;
20381;SDS011;10350;51.280;12.400;2023-03-12T05:21:07;4.00;;;2.30;;
20381;SDS011;10350;51.280;12.400;2023-03-12T05:23:34;7.40;;;2.55;;
20381;SDS011;10350;51.280;12.400;2023-03-12T05:26:00;2.75;;;1.95;;
20381;SDS011;10350;51.280;12.400;2023-03-12T05:28:27;5.75;;;2.10;;
20381;SDS011;10350;51.280;12.400;2023-03-12T05:30:54;3.22;;;2.17;;
20381;SDS011;10350;51.280;12.400;2023-03-12T05:33:20;4.55;;;2.60;;
20381;SDS011;10350;51.280;12.400;2023-03-12T05:35:46;5.95;;;2.80;;
20381;SDS011;10350;51.280;12.400;2023-03-12T05:38:12;5.68;;;2.60;;
20381;SDS011;10350;51.280;12.400;2023-03-12T05:40:38;7.90;;;2.17;;
20381;SDS011;10350;51.280;12.400;2023-03-12T05:43:04;4.25;;;2.40;;
20381;SDS011;10350;51.280;12.400;2023-03-12T05:45:31;4.28;;;2.70;;
20381;SDS011;10350;51.280;12.400;2023-03-12T05:47:57;4.93;;;2.20;;
20381;SDS011;10350;51.280;12.400;2023-03-12T05:50:23;2.78;;;2.10;;
20381;SDS011;10350;51.280;12.400;2023-03-12T05:52:49;3.97;;;2.60;;
20381;SDS011;10350;51.280;12.400;2023-03-12T05:55:16;7.28;;;2.83;;
20381;SDS011;10350;51.280;12.400;2023-03-12T05:57:42;2.72;;;2.10;;
20381;SDS011;10350;51.280;12.400;2023-03-12T06:00:08;4.63;;;2.00;;
20381;SDS011;10350;51.280;12.400;2023-03-12T06:02:34;7.35;;;2.75;;
20381;SDS011;10350;51.280;12.400;2023-03-12T06:05:00;5.63;;;2.63;;
20381;SDS011;10350;51.280;12.400;2023-03-12T06:07:26;3.03;;;2.20;;
20381;SDS011;10350;51.280;12.400;2023-03-12T06:09:52;4.38;;;2.50;;
20381;SDS011;10350;51.280;12.400;2023-03-12T06:12:18;7.05;;;2.10;;
20381;SDS011;10350;51.280;12.400;2023-03-12T06:14:44;6.00;;;2.58;;
20381;SDS011;10350;51.280;12.400;2023-03-12T06:17:10;2.65;;;2.35;;
20381;SDS011;10350;51.280;12.400;2023-03-12T06:19:36;4.80;;;3.08;;
20381;SDS011;10350;51.280;12.400;2023-03-12T06:22:02;8.55;;;2.90;;
20381;SDS011;10350;51.280;12.400;2023-03-12T06:24:28;6.93;;;2.83;;
20381;SDS011;10350;51.280;12.400;2023-03-12T06:26:54;12.15;;;3.05;;
20381;SDS011;10350;51.280;12.400;2023-03-12T06:29:20;3.40;;;2.63;;
20381;SDS011;10350;51.280;12.400;2023-03-12T06:31:46;6.28;;;3.03;;
20381;SDS011;10350;51.280;12.400;2023-03-12T06:34:16;6.68;;;2.75;;
20381;SDS011;10350;51.280;12.400;2023-03-12T06:36:42;3.88;;;2.75;;
20381;SDS011;10350;51.280;12.400;2023-03-12T06:39:08;6.15;;;3.10;;
20381;SDS011;10350;51.280;12.400;2023-03-12T06:41:35;4.82;;;2.75;;
20381;SDS011;10350;51.280;12.400;2023-03-12T06:44:01;5.13;;;2.38;;
20381;SDS011;10350;51.280;12.400;2023-03-12T06:46:29;5.70;;;2.75;;
20381;SDS011;10350;51.280;12.400;2023-03-12T06:48:55;5.82;;;3.05;;
20381;SDS011;10350;51.280;12.400;2023-03-12T06:51:21;6.90;;;2.92;;
20381;SDS011;10350;51.280;12.400;2023-03-12T06:53:47;6.72;;;2.45;;
20381;SDS011;10350;51.280;12.400;2023-03-12T06:56:13;8.57;;;3.05;;
20381;SDS011;10350;51.280;12.400;2023-03-12T06:58:40;6.45;;;2.88;;
20381;SDS011;10350;51.280;12.400;2023-03-12T07:01:06;5.53;;;3.05;;
20381;SDS011;10350;51.280;12.400;2023-03-12T07:03:32;4.22;;;3.00;;
20381;SDS011;10350;51.280;12.400;2023-03-12T07:05:58;5.32;;;2.80;;
20381;SDS011;10350;51.280;12.400;2023-03-12T07:08:25;5.05;;;2.80;;
20381;SDS011;10350;51.280;12.400;2023-03-12T07:10:54;5.10;;;2.75;;
20381;SDS011;10350;51.280;12.400;2023-03-12T07:13:20;3.30;;;2.50;;
20381;SDS011;10350;51.280;12.400;2023-03-12T07:15:46;6.13;;;2.88;;
20381;SDS011;10350;51.280;12.400;2023-03-12T07:18:12;6.03;;;2.58;;
20381;SDS011;10350;51.280;12.400;2023-03-12T07:20:40;3.90;;;2.50;;
20381;SDS011;10350;51.280;12.400;2023-03-12T07:23:06;4.45;;;2.15;;
20381;SDS011;10350;51.280;12.400;2023-03-12T07:25:36;5.82;;;3.03;;
20381;SDS011;10350;51.280;12.400;2023-03-12T07:28:02;4.57;;;2.78;;
20381;SDS011;10350;51.280;12.400;2023-03-12T07:30:29;4.65;;;2.70;;
20381;SDS011;10350;51.280;12.400;2023-03-12T07:32:59;3.63;;;2.22;;
20381;SDS011;10350;51.280;12.400;2023-03-12T07:35:25;5.78;;;2.63;;
20381;SDS011;10350;51.280;12.400;2023-03-12T07:37:51;4.72;;;2.70;;
20381;SDS011;10350;51.280;12.400;2023-03-12T07:40:17;6.15;;;2.58;;
20381;SDS011;10350;51.280;12.400;2023-03-12T07:42:43;8.05;;;2.70;;
20381;SDS011;10350;51.280;12.400;2023-03-12T07:45:09;5.78;;;3.05;;
20381;SDS011;10350;51.280;12.400;2023-03-12T07:47:35;4.93;;;2.85;;
20381;SDS011;10350;51.280;12.400;2023-03-12T07:50:01;5.60;;;2.90;;
20381;SDS011;10350;51.280;12.400;2023-03-12T07:52:27;4.45;;;2.65;;
20381;SDS011;10350;51.280;12.400;2023-03-12T07:54:53;4.28;;;2.70;;
20381;SDS011;10350;51.280;12.400;2023-03-12T07:57:20;3.78;;;2.50;;
20381;SDS011;10350;51.280;12.400;2023-03-12T07:59:46;5.05;;;2.60;;
20381;SDS011;10350;51.280;12.400;2023-03-12T08:02:12;3.80;;;3.05;;
20381;SDS011;10350;51.280;12.400;2023-03-12T08:04:38;3.92;;;2.70;;
20381;SDS011;10350;51.280;12.400;2023-03-12T08:07:04;4.72;;;3.00;;
20381;SDS011;10350;51.280;12.400;2023-03-12T08:09:30;3.30;;;2.90;;
20381;SDS011;10350;51.280;12.400;2023-03-12T08:11:57;7.13;;;2.85;;
20381;SDS011;10350;51.280;12.400;2023-03-12T08:14:23;3.53;;;2.90;;
20381;SDS011;10350;51.280;12.400;2023-03-12T08:16:49;4.47;;;2.92;;
20381;SDS011;10350;51.280;12.400;2023-03-12T08:19:15;4.95;;;3.47;;
20381;SDS011;10350;51.280;12.400;2023-03-12T08:21:41;8.05;;;3.00;;
20381;SDS011;10350;51.280;12.400;2023-03-12T08:24:08;3.65;;;3.35;;
20381;SDS011;10350;51.280;12.400;2023-03-12T08:26:34;3.38;;;3.08;;
20381;SDS011;10350;51.280;12.400;2023-03-12T08:29:00;5.15;;;3.10;;
20381;SDS011;10350;51.280;12.400;2023-03-12T08:31:26;5.30;;;3.10;;
20381;SDS011;10350;51.280;12.400;2023-03-12T08:33:52;3.70;;;3.28;;
20381;SDS011;10350;51.280;12.400;2023-03-12T08:36:18;3.15;;;2.80;;
20381;SDS011;10350;51.280;12.400;2023-03-12T08:38:44;4.50;;;3.08;;
20381;SDS011;10350;51.280;12.400;2023-03-12T08:41:10;5.05;;;3.00;;
20381;SDS011;10350;51.280;12.400;2023-03-12T08:43:36;5.70;;;2.90;;
20381;SDS011;10350;51.280;12.400;2023-03-12T08:46:02;4.00;;;2.88;;
20381;SDS011;10350;51.280;12.400;2023-03-12T08:48:29;5.18;;;3.00;;
20381;SDS011;10350;51.280;12.400;2023-03-12T08:50:56;4.72;;;3.17;;
20381;SDS011;10350;51.280;12.400;2023-03-12T08:53:23;5.05;;;3.20;;
20381;SDS011;10350;51.280;12.400;2023-03-12T08:55:51;5.00;;;3.50;;
20381;SDS011;10350;51.280;12.400;2023-03-12T09:00:43;5.68;;;3.80;;
20381;SDS011;10350;51.280;12.400;2023-03-12T09:03:09;5.32;;;3.78;;
20381;SDS011;10350;51.280;12.400;2023-03-12T09:05:38;6.32;;;3.80;;
20381;SDS011;10350;51.280;12.400;2023-03-12T09:08:04;4.78;;;3.67;;
20381;SDS011;10350;51.280;12.400;2023-03-12T09:10:30;4.55;;;3.90;;
20381;SDS011;10350;51.280;12.400;2023-03-12T09:12:56;4.20;;;3.50;;
20381;SDS011;10350;51.280;12.400;2023-03-12T09:15:22;4.20;;;3.63;;
20381;SDS011;10350;51.280;12.400;2023-03-12T09:17:50;6.43;;;4.32;;
20381;SDS011;10350;51.280;12.400;2023-03-12T09:20:18;5.70;;;3.42;;
20381;SDS011;10350;51.280;12.400;2023-03-12T09:22:44;5.60;;;3.80;;
20381;SDS011;10350;51.280;12.400;2023-03-12T09:25:10;5.63;;;3.03;;
20381;SDS011;10350;51.280;12.400;2023-03-12T09:27:40;4.20;;;3.80;;
20381;SDS011;10350;51.280;12.400;2023-03-12T09:30:07;4.32;;;3.28;;
20381;SDS011;10350;51.280;12.400;2023-03-12T09:32:33;6.10;;;3.45;;
20381;SDS011;10350;51.280;12.400;2023-03-12T09:34:59;7.82;;;4.30;;
20381;SDS011;10350;51.280;12.400;2023-03-12T09:37:25;3.88;;;3.53;;
20381;SDS011;10350;51.280;12.400;2023-03-12T09:39:51;7.00;;;4.10;;
20381;SDS011;10350;51.280;12.400;2023-03-12T09:44:50;5.00;;;3.35;;
20381;SDS011;10350;51.280;12.400;2023-03-12T09:47:23;6.00;;;3.30;;
20381;SDS011;10350;51.280;12.400;2023-03-12T09:49:51;4.53;;;3.72;;
20381;SDS011;10350;51.280;12.400;2023-03-12T09:52:28;4.35;;;3.95;;
20381;SDS011;10350;51.280;12.400;2023-03-12T09:54:58;4.18;;;3.53;;
20381;SDS011;10350;51.280;12.400;2023-03-12T09:57:27;5.45;;;4.03;;
20381;SDS011;10350;51.280;12.400;2023-03-12T09:59:56;10.32;;;4.10;;
20381;SDS011;10350;51.280;12.400;2023-03-12T10:05:10;8.50;;;4.70;;
20381;SDS011;10350;51.280;12.400;2023-03-12T10:07:49;5.18;;;4.65;;
20381;SDS011;10350;51.280;12.400;2023-03-12T10:10:26;6.47;;;3.88;;
20381;SDS011;10350;51.280;12.400;2023-03-12T10:13:03;4.10;;;3.80;;
20381;SDS011;10350;51.280;12.400;2023-03-12T10:25:45;5.63;;;4.38;;
20381;SDS011;10350;51.280;12.400;2023-03-12T10:28:19;5.88;;;4.65;;
20381;SDS011;10350;51.280;12.400;2023-03-12T10:31:11;8.10;;;3.97;;
20381;SDS011;10350;51.280;12.400;2023-03-12T10:33:43;7.45;;;4.00;;
20381;SDS011;10350;51.280;12.400;2023-03-12T10:36:16;6.63;;;3.97;;
20381;SDS011;10350;51.280;12.400;2023-03-12T10:38:43;6.93;;;3.53;;
20381;SDS011;10350;51.280;12.400;2023-03-12T10:41:14;4.32;;;3.70;;
20381;SDS011;10350;51.280;12.400;2023-03-12T10:43:40;6.72;;;3.95;;
20381;SDS011;10350;51.280;12.400;2023-03-12T10:48:39;7.07;;;3.58;;
20381;SDS011;10350;51.280;12.400;2023-03-12T10:51:06;8.07;;;4.80;;
20381;SDS011;10350;51.280;12.400;2023-03-12T10:53:40;4.55;;;3.83;;
20381;SDS011;10350;51.280;12.400;2023-03-12T10:56:16;5.70;;;4.20;;
20381;SDS011;10350;51.280;12.400;2023-03-12T10:58:43;7.03;;;3.80;;
20381;SDS011;10350;51.280;12.400;2023-03-12T11:01:18;5.10;;;4.53;;
20381;SDS011;10350;51.280;12.400;2023-03-12T11:03:44;4.38;;;3.85;;
20381;SDS011;10350;51.280;12.400;2023-03-12T11:06:24;6.60;;;4.40;;
20381;SDS011;10350;51.280;12.400;2023-03-12T11:09:01;8.35;;;4.30;;
20381;SDS011;10350;51.280;12.400;2023-03-12T11:11:35;6.15;;;4.55;;
20381;SDS011;10350;51.280;12.400;2023-03-12T11:14:15;7.28;;;4.15;;
20381;SDS011;10350;51.280;12.400;2023-03-12T11:16:42;5.95;;;4.70;;
20381;SDS011;10350;51.280;12.400;2023-03-12T11:19:09;6.57;;;4.43;;
20381;SDS011;10350;51.280;12.400;2023-03-12T11:21:36;6.57;;;4.20;;
20381;SDS011;10350;51.280;12.400;2023-03-12T11:24:11;6.63;;;4.80;;
20381;SDS011;10350;51.280;12.400;2023-03-12T11:29:16;5.82;;;4.35;;
20381;SDS011;10350;51.280;12.400;2023-03-12T11:31:44;5.22;;;4.13;;
20381;SDS011;10350;51.280;12.400;2023-03-12T11:34:19;5.97;;;4.38;;
20381;SDS011;10350;51.280;12.400;2023-03-12T11:36:55;7.68;;;4.28;;
20381;SDS011;10350;51.280;12.400;2023-03-12T11:44:56;5.28;;;4.47;;
20381;SDS011;10350;51.280;12.400;2023-03-12T11:47:27;5.22;;;4.20;;
20381;SDS011;10350;51.280;12.400;2023-03-12T11:50:00;4.45;;;3.80;;
20381;SDS011;10350;51.280;12.400;2023-03-12T11:52:43;4.55;;;4.07;;
20381;SDS011;10350;51.280;12.400;2023-03-12T12:00:35;5.68;;;3.95;;
20381;SDS011;10350;51.280;12.400;2023-03-12T12:05:56;4.45;;;4.05;;
20381;SDS011;10350;51.280;12.400;2023-03-12T12:14:49;4.30;;;3.95;;
20381;SDS011;10350;51.280;12.400;2023-03-12T12:21:43;4.80;;;3.80;;
20381;SDS011;10350;51.280;12.400;2023-03-12T12:24:19;6.57;;;4.00;;
20381;SDS011;10350;51.280;12.400;2023-03-12T12:27:35;4.95;;;4.30;;
20381;SDS011;10350;51.280;12.400;2023-03-12T12:34:58;6.30;;;4.80;;
20381;SDS011;10350;51.280;12.400;2023-03-12T12:37:42;5.63;;;4.15;;
20381;SDS011;10350;51.280;12.400;2023-03-12T12:43:01;8.10;;;3.97;;
20381;SDS011;10350;51.280;12.400;2023-03-12T12:45:28;7.18;;;4.13;;
20381;SDS011;10350;51.280;12.400;2023-03-12T12:47:56;5.70;;;4.82;;
20381;SDS011;10350;51.280;12.400;2023-03-12T12:50:24;6.15;;;4.05;;
20381;SDS011;10350;51.280;12.400;2023-03-12T12:55:22;4.30;;;3.90;;
20381;SDS011;10350;51.280;12.400;2023-03-12T13:00:24;8.82;;;4.10;;
20381;SDS011;10350;51.280;12.400;2023-03-12T13:02:54;5.63;;;3.50;;
20381;SDS011;10350;51.280;12.400;2023-03-12T13:07:47;3.50;;;3.20;;
20381;SDS011;10350;51.280;12.400;2023-03-12T13:10:58;3.58;;;3.22;;
20381;SDS011;10350;51.280;12.400;2023-03-12T13:13:02;3.67;;;3.38;;
20381;SDS011;10350;51.280;12.400;2023-03-12T13:20:21;3.53;;;3.10;;
20381;SDS011;10350;51.280;12.400;2023-03-12T13:43:00;5.30;;;3.25;;
20381;SDS011;10350;51.280;12.400;2023-03-12T13:45:27;5.63;;;3.55;;
20381;SDS011;10350;51.280;12.400;2023-03-12T13:47:57;6.55;;;3.53;;
20381;SDS011;10350;51.280;12.400;2023-03-12T13:52:57;11.57;;;3.28;;
20381;SDS011;10350;51.280;12.400;2023-03-12T13:55:26;4.95;;;3.60;;
20381;SDS011;10350;51.280;12.400;2023-03-12T13:57:53;6.20;;;3.83;;
20381;SDS011;10350;51.280;12.400;2023-03-12T14:02:52;4.50;;;3.10;;
20381;SDS011;10350;51.280;12.400;2023-03-12T14:05:19;10.18;;;3.55;;
20381;SDS011;10350;51.280;12.400;2023-03-12T14:07:48;5.70;;;3.30;;
20381;SDS011;10350;51.280;12.400;2023-03-12T14:10:26;6.35;;;3.35;;
20381;SDS011;10350;51.280;12.400;2023-03-12T14:15:22;5.13;;;3.30;;
20381;SDS011;10350;51.280;12.400;2023-03-12T14:17:59;9.27;;;3.50;;
20381;SDS011;10350;51.280;12.400;2023-03-12T14:20:29;5.32;;;3.35;;
20381;SDS011;10350;51.280;12.400;2023-03-12T14:23:11;4.28;;;3.70;;
20381;SDS011;10350;51.280;12.400;2023-03-12T14:25:41;7.82;;;3.20;;
20381;SDS011;10350;51.280;12.400;2023-03-12T14:28:26;7.57;;;3.20;;
20381;SDS011;10350;51.280;12.400;2023-03-12T14:33:22;4.93;;;3.30;;
20381;SDS011;10350;51.280;12.400;2023-03-12T14:35:54;3.47;;;3.08;;
20381;SDS011;10350;51.280;12.400;2023-03-12T14:38:24;8.85;;;4.53;;
20381;SDS011;10350;51.280;12.400;2023-03-12T14:41:05;6.75;;;3.00;;
20381;SDS011;10350;51.280;12.400;2023-03-12T14:43:37;7.97;;;3.35;;
20381;SDS011;10350;51.280;12.400;2023-03-12T14:46:04;5.20;;;3.42;;
20381;SDS011;10350;51.280;12.400;2023-03-12T14:48:34;5.20;;;3.30;;
20381;SDS011;10350;51.280;12.400;2023-03-12T14:51:01;4.57;;;3.20;;
20381;SDS011;10350;51.280;12.400;2023-03-12T14:53:31;6.53;;;3.63;;
20381;SDS011;10350;51.280;12.400;2023-03-12T14:56:05;6.15;;;3.40;;
20381;SDS011;10350;51.280;12.400;2023-03-12T14:58:32;7.88;;;3.75;;
20381;SDS011;10350;51.280;12.400;2023-03-12T15:01:03;7.60;;;2.92;;
20381;SDS011;10350;51.280;12.400;2023-03-12T15:03:39;7.30;;;3.45;;
20381;SDS011;10350;51.280;12.400;2023-03-12T15:06:27;7.45;;;3.15;;
20381;SDS011;10350;51.280;12.400;2023-03-12T15:08:54;6.20;;;3.42;;
20381;SDS011;10350;51.280;12.400;2023-03-12T15:11:21;3.60;;;3.10;;
20381;SDS011;10350;51.280;12.400;2023-03-12T15:13:48;7.95;;;3.63;;
20381;SDS011;10350;51.280;12.400;2023-03-12T15:16:15;9.98;;;3.55;;
20381;SDS011;10350;51.280;12.400;2023-03-12T15:18:41;9.57;;;3.60;;
20381;SDS011;10350;51.280;12.400;2023-03-12T15:21:07;8.73;;;3.70;;
20381;SDS011;10350;51.280;12.400;2023-03-12T15:23:33;6.78;;;3.80;;
20381;SDS011;10350;51.280;12.400;2023-03-12T15:26:11;5.78;;;3.08;;
20381;SDS011;10350;51.280;12.400;2023-03-12T15:28:37;4.82;;;3.38;;
20381;SDS011;10350;51.280;12.400;2023-03-12T15:31:05;5.03;;;3.83;;
20381;SDS011;10350;51.280;12.400;2023-03-12T15:33:31;6.32;;;4.50;;
20381;SDS011;10350;51.280;12.400;2023-03-12T15:38:30;6.03;;;3.58;;
20381;SDS011;10350;51.280;12.400;2023-03-12T15:41:00;4.10;;;2.88;;
20381;SDS011;10350;51.280;12.400;2023-03-12T15:43:28;4.70;;;3.60;;
20381;SDS011;10350;51.280;12.400;2023-03-12T15:45:57;7.85;;;3.55;;
20381;SDS011;10350;51.280;12.400;2023-03-12T15:50:50;4.95;;;3.65;;
20381;SDS011;10350;51.280;12.400;2023-03-12T15:55:42;3.97;;;3.58;;
20381;SDS011;10350;51.280;12.400;2023-03-12T15:58:23;4.60;;;3.00;;
20381;SDS011;10350;51.280;12.400;2023-03-12T16:00:50;4.95;;;3.45;;
20381;SDS011;10350;51.280;12.400;2023-03-12T16:03:20;5.45;;;3.65;;
20381;SDS011;10350;51.280;12.400;2023-03-12T16:05:47;4.13;;;3.38;;
20381;SDS011;10350;51.280;12.400;2023-03-12T16:08:20;5.70;;;3.57;;
20381;SDS011;10350;51.280;12.400;2023-03-12T16:10:49;5.72;;;3.40;;
20381;SDS011;10350;51.280;12.400;2023-03-12T16:13:16;4.32;;;3.42;;
20381;SDS011;10350;51.280;12.400;2023-03-12T16:15:43;7.95;;;4.15;;
20381;SDS011;10350;51.280;12.400;2023-03-12T16:18:13;7.97;;;3.42;;
20381;SDS011;10350;51.280;12.400;2023-03-12T16:20:40;4.25;;;3.20;;
20381;SDS011;10350;51.280;12.400;2023-03-12T16:23:06;3.45;;;3.03;;
20381;SDS011;10350;51.280;12.400;2023-03-12T16:25:32;3.15;;;2.92;;
20381;SDS011;10350;51.280;12.400;2023-03-12T16:27:59;5.38;;;3.60;;
20381;SDS011;10350;51.280;12.400;2023-03-12T16:30:27;6.43;;;3.97;;